tititudorancea.com
Station Historical Data
Daily Summary for April 6, 2018 Units:  Metric    English   Both
« Previous Day
Next Day »
Daily Weekly Monthly Yearly Custom
  High: Low: Average:
Temperature: -17.8 °C 11.1 °C 14.8 °C
Dew Point: -17.8 °C 5.8 °C 8.9 °C
Humidity: Humidity % 43 % 69 %
Wind Speed: 0 km/h 0 km/h 8 km/h
Wind Gust: 0 km/h - -
Wind:- - SW
Pressure: 0 hPa 1017.2 hPa -
Precipitation: 0 mm    
Historical Graphs
 
 
Ararat weather Find more about Weather in Ararat, AU


 



 


Tabular Data for April 6, 2018
Time Temperature Dew Point Pressure Wind Wind Speed Wind Gust Humidity Rainfall Rate (Hourly)
-17.8 °C -17.8 °C 0 hPa Calm     Humidity % 0 mm
00:03 11.1 °C 9.4 °C 1017.5 hPa South 6 km/h 8 km/h 89 % 0 mm
00:08 11.1 °C 9.2 °C 1017.5 hPa North 7.2 km/h 11.1 km/h 88 % 0 mm
00:13 11.1 °C 9.2 °C 1017.5 hPa North 7.4 km/h 8 km/h 88 % 0 mm
00:18 11.1 °C 9.2 °C 1017.5 hPa North 6.3 km/h 11.1 km/h 88 % 0 mm
00:23 11.1 °C 9.2 °C 1017.5 hPa South 4.2 km/h 7.4 km/h 88 % 0 mm
00:28 11.1 °C 9.2 °C 1017.5 hPa North 3.5 km/h 4.8 km/h 88 % 0 mm
00:33 11.2 °C 9.3 °C 1017.5 hPa South 1.9 km/h 5.6 km/h 88 % 0 mm
00:38 11.2 °C 9.3 °C 1017.5 hPa North 2.1 km/h 3.7 km/h 88 % 0 mm
00:43 11.2 °C 9.3 °C 1017.5 hPa North 1.3 km/h 5.6 km/h 88 % 0 mm
00:48 11.2 °C 9.3 °C 1017.2 hPa North 4.7 km/h 6.4 km/h 88 % 0 mm
00:53 11.2 °C 9.3 °C 1017.2 hPa North 7.9 km/h 11.1 km/h 88 % 0 mm
00:58 11.3 °C 9.6 °C 1017.2 hPa South 5.6 km/h 6.4 km/h 89 % 0 mm
01:04 11.4 °C 9.4 °C 1017.2 hPa North 3.7 km/h 7.4 km/h 88 % 0 mm
01:09 11.4 °C 9.5 °C 1017.2 hPa South 3.1 km/h 9.3 km/h 88 % 0 mm
01:14 11.4 °C 9.5 °C 1017.2 hPa North 4 km/h 9.3 km/h 88 % 0 mm
01:19 11.5 °C 9.6 °C 1017.2 hPa South 5.8 km/h 8 km/h 88 % 0 mm
01:24 11.6 °C 9.6 °C 1017.2 hPa South 5.3 km/h 9.3 km/h 88 % 0 mm
01:29 11.6 °C 9.7 °C 1017.2 hPa South 4.3 km/h 5.6 km/h 88 % 0 mm
01:34 11.6 °C 9.7 °C 1017.2 hPa South 6 km/h 9.7 km/h 88 % 0 mm
01:39 11.6 °C 9.5 °C 1017.2 hPa South 6.4 km/h 8 km/h 87 % 0 mm
01:44 11.6 °C 9.5 °C 1017.2 hPa South 10 km/h 14.8 km/h 87 % 0 mm
01:49 11.6 °C 9.5 °C 1017.2 hPa South 8.9 km/h 11.1 km/h 87 % 0 mm
01:54 11.6 °C 9.5 °C 1017.2 hPa North 7.7 km/h 14.8 km/h 87 % 0 mm
01:59 11.7 °C 9.6 °C 1017.2 hPa North 5.8 km/h 7.4 km/h 87 % 0 mm
02:04 11.7 °C 9.6 °C 1017.2 hPa North 4.8 km/h 7.4 km/h 87 % 0 mm
02:09 11.7 °C 9.6 °C 1017.2 hPa North 3.4 km/h 5.6 km/h 87 % 0 mm
02:14 11.7 °C 9.6 °C 1017.2 hPa South 6.9 km/h 9.3 km/h 87 % 0 mm
02:19 11.7 °C 9.6 °C 1017.2 hPa South 2.7 km/h 5.6 km/h 87 % 0 mm
02:24 11.8 °C 9.7 °C 1017.2 hPa North 3.9 km/h 5.6 km/h 87 % 0 mm
02:29 11.8 °C 9.7 °C 1017.2 hPa South 5.8 km/h 9.7 km/h 87 % 0 mm
02:34 11.8 °C 9.7 °C 1017.2 hPa North 6.8 km/h 9.3 km/h 87 % 0 mm
02:39 11.8 °C 9.7 °C 1017.2 hPa South 8.5 km/h 11.1 km/h 87 % 0 mm
02:44 11.8 °C 9.7 °C 1017.2 hPa North 7.1 km/h 9.3 km/h 87 % 0 mm
02:49 11.8 °C 9.7 °C 1017.2 hPa North 9.2 km/h 14.8 km/h 87 % 0 mm
02:54 11.9 °C 9.8 °C 1017.2 hPa North 7.2 km/h 11.1 km/h 87 % 0 mm
02:59 11.9 °C 9.8 °C 1017.2 hPa South 8.4 km/h 16.7 km/h 87 % 0 mm
03:04 11.9 °C 9.8 °C 1017.2 hPa South 10.9 km/h 14.8 km/h 87 % 0 mm
03:09 12 °C 9.9 °C 1017.2 hPa North 5.8 km/h 11.1 km/h 87 % 0 mm
03:14 12 °C 9.9 °C 1017.2 hPa South 8.4 km/h 14.8 km/h 87 % 0 mm
03:19 12 °C 9.9 °C 1017.2 hPa South 9.8 km/h 13 km/h 87 % 0 mm
03:24 12.1 °C 9.9 °C 1017.2 hPa North 9.8 km/h 13 km/h 87 % 0 mm
03:29 12 °C 9.9 °C 1017.2 hPa North 8.5 km/h 13 km/h 87 % 0 mm
03:34 12 °C 9.9 °C 1017.2 hPa SSW 12.9 km/h 18.5 km/h 87 % 0 mm
03:39 12 °C 9.9 °C 1017.2 hPa South 11.1 km/h 18.5 km/h 87 % 0 mm
03:44 12 °C 9.9 °C 1017.2 hPa South 10.3 km/h 14.8 km/h 87 % 0 mm
03:49 12 °C 9.9 °C 1017.2 hPa North 6 km/h 9.3 km/h 87 % 0 mm
03:54 12 °C 9.9 °C 1017.2 hPa North 8.4 km/h 13 km/h 87 % 0 mm
03:59 12.1 °C 9.9 °C 1017.2 hPa South 9.5 km/h 13 km/h 87 % 0 mm
04:04 12.1 °C 9.9 °C 1017.2 hPa South 15.8 km/h 22.2 km/h 87 % 0 mm
04:09 12.1 °C 10 °C 1017.5 hPa South 13.2 km/h 20.4 km/h 87 % 0 mm
04:14 12.1 °C 10 °C 1017.2 hPa South 8.5 km/h 13 km/h 87 % 0 mm
04:19 12.1 °C 10 °C 1017.5 hPa SSW 9.2 km/h 14.8 km/h 87 % 0 mm
04:24 12.1 °C 10 °C 1017.2 hPa South 8.7 km/h 14.8 km/h 87 % 0 mm
04:29 12.2 °C 10.1 °C 1017.5 hPa South 5.5 km/h 7.4 km/h 87 % 0 mm
04:34 12.2 °C 10.1 °C 1017.5 hPa North 6.6 km/h 11.1 km/h 87 % 0 mm
04:39 12.2 °C 10.1 °C 1017.5 hPa South 8.9 km/h 11.1 km/h 87 % 0 mm
04:44 12.2 °C 10.1 °C 1017.5 hPa South 7.2 km/h 13 km/h 87 % 0 mm
04:49 12.2 °C 10.1 °C 1017.5 hPa North 3.4 km/h 6.4 km/h 87 % 0 mm
04:54 12.3 °C 10.2 °C 1017.5 hPa North 4.7 km/h 9.3 km/h 87 % 0 mm
04:59 12.3 °C 10.2 °C 1017.5 hPa North 3.4 km/h 8 km/h 87 % 0 mm
05:04 12.3 °C 10.2 °C 1017.5 hPa South 6.1 km/h 8 km/h 87 % 0 mm
05:09 12.3 °C 10.2 °C 1017.8 hPa South 10.1 km/h 13 km/h 87 % 0 mm
05:14 12.3 °C 10.2 °C 1017.8 hPa SSW 10.3 km/h 16.7 km/h 87 % 0 mm
05:19 12.2 °C 10.1 °C 1017.8 hPa South 15.1 km/h 18.5 km/h 87 % 0 mm
05:24 12.2 °C 10.1 °C 1017.8 hPa North 8 km/h 13 km/h 87 % 0 mm
05:29 12.2 °C 10.3 °C 1017.8 hPa North 9.5 km/h 14.8 km/h 88 % 0 mm
05:34 12.2 °C 10.4 °C 1017.8 hPa North 9.7 km/h 13 km/h 89 % 0 mm
05:39 12.1 °C 10.3 °C 1018.2 hPa South 7.6 km/h 11.1 km/h 89 % 0 mm
05:44 12 °C 10.4 °C 1018.2 hPa South 5.1 km/h 6.4 km/h 90 % 0 mm
05:49 11.9 °C 10.3 °C 1018.2 hPa SSW 5 km/h 7.4 km/h 90 % 0 mm
05:54 11.9 °C 10.5 °C 1018.2 hPa South 5.1 km/h 9.3 km/h 91 % 0 mm
05:59 11.9 °C 10.5 °C 1018.2 hPa South 6.1 km/h 7.4 km/h 91 % 0 mm
06:04 11.9 °C 10.5 °C 1018.2 hPa North 2.1 km/h 5.6 km/h 91 % 0 mm
06:09 11.9 °C 10.5 °C 1018.2 hPa North 3.9 km/h 5.6 km/h 91 % 0 mm
06:14 11.9 °C 10.5 °C 1018.2 hPa North 1.9 km/h 5.6 km/h 91 % 0 mm
06:19 11.9 °C 10.5 °C 1018.2 hPa South 6.1 km/h 7.4 km/h 91 % 0 mm
06:24 12 °C 10.6 °C 1018.2 hPa South 4.7 km/h 7.4 km/h 91 % 0 mm
06:29 12 °C 10.6 °C 1018.2 hPa South 3.7 km/h 5.6 km/h 91 % 0 mm
06:34 12.1 °C 10.6 °C 1018.2 hPa North 4 km/h 6.4 km/h 91 % 0 mm
06:39 12.1 °C 10.7 °C 1018.2 hPa South 5.5 km/h 8 km/h 91 % 0 mm
06:44 12.1 °C 10.7 °C 1018.2 hPa North 6.8 km/h 11.1 km/h 91 % 0 mm
06:49 12.2 °C 10.7 °C 1018.2 hPa South 5.5 km/h 8 km/h 91 % 0 mm
06:54 12.2 °C 10.7 °C 1018.2 hPa North 5 km/h 9.3 km/h 91 % 0 mm
06:59 12.2 °C 10.8 °C 1018.5 hPa South 7.4 km/h 11.1 km/h 91 % 0 mm
07:04 12.2 °C 10.6 °C 1018.2 hPa South 6.6 km/h 9.3 km/h 90 % 0 mm
07:09 12.3 °C 10.7 °C 1018.2 hPa South 6.3 km/h 11.1 km/h 90 % 0 mm
07:14 12.3 °C 10.7 °C 1018.5 hPa North 5.3 km/h 8 km/h 90 % 0 mm
07:19 12.4 °C 10.8 °C 1018.5 hPa South 5.3 km/h 8 km/h 90 % 0 mm
07:24 12.4 °C 10.8 °C 1018.5 hPa South 5.8 km/h 6.4 km/h 90 % 0 mm
07:29 12.5 °C 10.9 °C 1018.5 hPa South 3.5 km/h 11.1 km/h 90 % 0 mm
07:34 12.6 °C 10.8 °C 1018.5 hPa South 8.4 km/h 11.1 km/h 89 % 0 mm
07:39 12.6 °C 10.8 °C 1018.5 hPa South 6 km/h 7.4 km/h 89 % 0 mm
07:44 12.7 °C 10.9 °C 1018.5 hPa South 10.3 km/h 13 km/h 89 % 0 mm
07:49 12.8 °C 11.1 °C 1018.8 hPa SSW 12.9 km/h 18.5 km/h 89 % 0 mm
07:54 12.9 °C 11 °C 1018.8 hPa South 9.7 km/h 18.5 km/h 88 % 0 mm
07:59 13.1 °C 10.9 °C 1018.8 hPa South 10 km/h 17.7 km/h 87 % 0 mm
08:04 13.2 °C 10.9 °C 1018.8 hPa South 11.6 km/h 16.7 km/h 86 % 0 mm
08:09 13.3 °C 11 °C 1018.8 hPa South 6 km/h 11.3 km/h 86 % 0 mm
08:14 13.4 °C 10.9 °C 1018.8 hPa SSW 8 km/h 16.7 km/h 85 % 0 mm
08:24 13.7 °C 10.8 °C 1019.2 hPa Calm   16.7 km/h 83 % 0 mm
08:29 13.7 °C 10.9 °C 1019.2 hPa SSW 14.2 km/h 18.5 km/h 83 % 0 mm
08:34 13.7 °C 10.9 °C 1019.2 hPa SSW 11.9 km/h 17.7 km/h 83 % 0 mm
08:39 13.8 °C 10.9 °C 1019.2 hPa North 14.6 km/h 20.4 km/h 83 % 0 mm
08:44 13.9 °C 10.9 °C 1019.5 hPa SSW 18.5 km/h 18.5 km/h 82 % 0 mm
08:49 14.1 °C 11.1 °C 1019.5 hPa SSW 16.3 km/h 18.5 km/h 82 % 0 mm
08:54 14.2 °C 10.9 °C 1019.5 hPa South 11.1 km/h 14.8 km/h 81 % 0 mm
08:59 14.2 °C 11 °C 1019.5 hPa South 17.2 km/h 22.2 km/h 81 % 0 mm
09:04 14.4 °C 11.2 °C 1019.5 hPa SSW 5.8 km/h 14.8 km/h 81 % 0 mm
09:09 14.6 °C 11.2 °C 1019.5 hPa SSE 10.6 km/h 16.7 km/h 80 % 0 mm
09:14 14.7 °C 11.3 °C 1019.5 hPa SSW 6 km/h 18.5 km/h 80 % 0 mm
09:19 14.7 °C 11.1 °C 1019.9 hPa South 14.8 km/h 16.1 km/h 79 % 0 mm
09:24 14.8 °C 11.2 °C 1019.9 hPa South 10.9 km/h 14.8 km/h 79 % 0 mm
09:29 15 °C 11.4 °C 1019.9 hPa SSE 8.7 km/h 16.7 km/h 79 % 0 mm
09:34 15.5 °C 11.7 °C 1019.9 hPa South 14.8 km/h 20.4 km/h 78 % 0 mm
09:39 15.9 °C 11.5 °C 1019.9 hPa SSW 20 km/h 22.5 km/h 75 % 0 mm
09:44 15.7 °C 11.3 °C 1019.9 hPa South 16.7 km/h 22.2 km/h 75 % 0 mm
09:49 15.4 °C 11.2 °C 1020.2 hPa SSW 14.5 km/h 20.4 km/h 76 % 0 mm
09:54 15.4 °C 11.2 °C 1020.2 hPa SW 12.4 km/h 18.5 km/h 76 % 0 mm
09:59 15.9 °C 11.7 °C 1020.2 hPa SW 12.9 km/h 16.7 km/h 76 % 0 mm
10:04 15.9 °C 11.3 °C 1020.2 hPa SSW 14.6 km/h 18.5 km/h 74 % 0 mm
10:09 15.7 °C 11.2 °C 1020.2 hPa SSW 9.3 km/h 14.8 km/h 75 % 0 mm
10:14 16 °C 11.6 °C 1020.2 hPa South 11.6 km/h 22.2 km/h 75 % 0 mm
10:19 16.4 °C 11.6 °C 1019.9 hPa North 11.7 km/h 24.1 km/h 73 % 0 mm
10:24 16.6 °C 11.5 °C 1019.9 hPa SSW 13.4 km/h 20.4 km/h 72 % 0 mm
10:29 16.4 °C 11.3 °C 1019.9 hPa SW 12.9 km/h 18.5 km/h 72 % 0 mm
10:34 16.4 °C 11.3 °C 1019.9 hPa North 7.7 km/h 18.5 km/h 72 % 0 mm
10:39 16.6 °C 11.3 °C 1019.9 hPa North 7.4 km/h 16.7 km/h 71 % 0 mm
10:44 16.9 °C 11.4 °C 1019.9 hPa South 7.2 km/h 13 km/h 70 % 0 mm
10:49 17 °C 11.3 °C 1019.9 hPa SSW 11.7 km/h 18.5 km/h 69 % 0 mm
10:54 17.1 °C 11.1 °C 1019.9 hPa SSW 11.3 km/h 18.5 km/h 68 % 0 mm
10:59 17.4 °C 11.2 °C 1019.5 hPa SE 13 km/h 18.5 km/h 67 % 0 mm
11:04 17.7 °C 11.1 °C 1019.5 hPa SSW 11.7 km/h 14.8 km/h 65 % 0 mm
11:09 17.4 °C 10.9 °C 1019.5 hPa SW 9.5 km/h 14.8 km/h 66 % 0 mm
11:14 17.5 °C 11.3 °C 1019.5 hPa SW 9.8 km/h 14.8 km/h 67 % 0 mm
11:19 17.6 °C 11.1 °C 1019.5 hPa South 8.7 km/h 18.5 km/h 66 % 0 mm
11:24 17.7 °C 11.1 °C 1019.5 hPa SSW 10.5 km/h 18.5 km/h 65 % 0 mm
11:29 17.7 °C 10.8 °C 1019.5 hPa SSW 7.4 km/h 18.5 km/h 64 % 0 mm
11:34 18.1 °C 10.9 °C 1019.5 hPa SSW 9 km/h 18.5 km/h 63 % 0 mm
11:39 18.4 °C 10.7 °C 1019.5 hPa South 10.8 km/h 18.5 km/h 61 % 0 mm
11:44 18.5 °C 10.1 °C 1019.5 hPa SW 9 km/h 18.5 km/h 58 % 0 mm
11:49 18.4 °C 10.2 °C 1019.5 hPa SSW 8.5 km/h 14.8 km/h 59 % 0 mm
11:55 18.7 °C 10.5 °C 1019.5 hPa South 10.5 km/h 18.5 km/h 59 % 0 mm
11:59 18.9 °C 10.5 °C 1019.2 hPa SSW 17.1 km/h 18.5 km/h 58 % 0 mm
12:05 18.9 °C 10.2 °C 1019.2 hPa SSW 11.4 km/h 14.8 km/h 57 % 0 mm
12:10 18.9 °C 10.2 °C 1019.2 hPa SSE 14.8 km/h 22.2 km/h 57 % 0 mm
12:15 18.6 °C 10.1 °C 1019.2 hPa SSW 13 km/h 18.5 km/h 58 % 0 mm
12:20 18.6 °C 10.6 °C 1019.2 hPa North 5.5 km/h 11.1 km/h 60 % 0 mm
12:25 19 °C 10.6 °C 1019.2 hPa WSW 10.9 km/h 22.2 km/h 58 % 0 mm
12:30 19 °C 9.2 °C 1019.2 hPa SSW 8.7 km/h 18.5 km/h 53 % 0 mm
12:35 18.9 °C 9.7 °C 1018.8 hPa SSW 8.7 km/h 13 km/h 55 % 0 mm
12:40 19.1 °C 9.3 °C 1018.8 hPa SSW 17.9 km/h 24.1 km/h 53 % 0 mm
12:45 19.1 °C 9.3 °C 1018.8 hPa South 11.6 km/h 16.7 km/h 53 % 0 mm
12:50 19.4 °C 9.3 °C 1018.8 hPa SSW 16.1 km/h 20.4 km/h 52 % 0 mm
12:55 19.8 °C 9.9 °C 1018.5 hPa South 17.2 km/h 24.1 km/h 53 % 0 mm
12:56 19.8 °C 9.7 °C 1018.5 hPa South 18.8 km/h 31.5 km/h 52 % 0 mm
13:01 19.7 °C 9.9 °C 1018.8 hPa SSW 10.8 km/h 18.5 km/h 53 % 0 mm
13:06 19.9 °C 9.8 °C 1018.5 hPa SSE 7.9 km/h 13 km/h 52 % 0 mm
13:11 20.4 °C 9 °C 1018.5 hPa SSW 21.4 km/h 25.9 km/h 48 % 0 mm
13:16 20.1 °C 8.7 °C 1018.5 hPa SSW 9.5 km/h 14.8 km/h 48 % 0 mm
13:21 20.3 °C 8.9 °C 1018.5 hPa South 7.1 km/h 14.8 km/h 48 % 0 mm
13:26 20.4 °C 9.1 °C 1018.2 hPa SSW 18.3 km/h 24.1 km/h 48 % 0 mm
13:31 20.2 °C 8.8 °C 1018.2 hPa SSW 15.4 km/h 19.3 km/h 48 % 0 mm
13:36 20.3 °C 8.7 °C 1018.2 hPa SSW 16.4 km/h 22.2 km/h 47 % 0 mm
13:41 20.2 °C 8.8 °C 1018.2 hPa South 14 km/h 22.2 km/h 48 % 0 mm
13:46 20.1 °C 8.7 °C 1018.2 hPa SW 14.5 km/h 20.4 km/h 48 % 0 mm
13:51 19.8 °C 8.8 °C 1018.2 hPa South 12.4 km/h 20.4 km/h 49 % 0 mm
13:56 20.6 °C 8.6 °C 1018.2 hPa WSW 12.9 km/h 19.3 km/h 46 % 0 mm
14:01 20.6 °C 8.3 °C 1018.2 hPa SW 12.4 km/h 18.5 km/h 45 % 0 mm
14:06 20.8 °C 8.4 °C 1018.2 hPa SW 13.4 km/h 22.5 km/h 45 % 0 mm
14:11 20.7 °C 8.3 °C 1018.2 hPa SW 13.4 km/h 18.5 km/h 45 % 0 mm
14:16 20.6 °C 7.9 °C 1017.8 hPa South 15.1 km/h 22.2 km/h 44 % 0 mm
14:21 20.8 °C 7.7 °C 1017.8 hPa SW 14.2 km/h 18.5 km/h 43 % 0 mm
14:26 21.1 °C 8.7 °C 1018.2 hPa South 17.5 km/h 22.2 km/h 45 % 0 mm
14:31 20.9 °C 8.5 °C 1018.2 hPa South 13.5 km/h 20.4 km/h 45 % 0 mm
14:36 20.3 °C 8.3 °C 1018.2 hPa SSW 16.3 km/h 22.2 km/h 46 % 0 mm
14:41 20.3 °C 8.7 °C 1018.2 hPa SSW 11.3 km/h 14.8 km/h 47 % 0 mm
14:46 20.4 °C 8.7 °C 1017.8 hPa SSW 10.5 km/h 13 km/h 47 % 0 mm
14:51 20.7 °C 9.3 °C 1018.2 hPa SSE 13.8 km/h 18.5 km/h 48 % 0 mm
14:56 20.9 °C 9.2 °C 1017.8 hPa ESE 13 km/h 18.5 km/h 47 % 0 mm
15:01 21 °C 8.6 °C 1018.2 hPa South 16.1 km/h 25.9 km/h 45 % 0 mm
15:06 20.6 °C 8.3 °C 1017.8 hPa SSE 16.9 km/h 25.9 km/h 45 % 0 mm
15:11 20.5 °C 8.5 °C 1017.8 hPa SSW 11.9 km/h 17.7 km/h 46 % 0 mm
15:16 20.5 °C 8.5 °C 1018.2 hPa SW 16.7 km/h 25.9 km/h 46 % 0 mm
15:21 20.4 °C 8.1 °C 1018.2 hPa SSW 13.2 km/h 22.2 km/h 45 % 0 mm
15:26 20.5 °C 8.2 °C 1018.2 hPa SW 12.2 km/h 18.5 km/h 45 % 0 mm
15:31 20.6 °C 8.6 °C 1018.2 hPa South 10.6 km/h 16.7 km/h 46 % 0 mm
15:36 20.3 °C 8 °C 1018.2 hPa SSW 13.4 km/h 18.5 km/h 45 % 0 mm
15:41 20.2 °C 8.2 °C 1018.2 hPa North 14 km/h 18.5 km/h 46 % 0 mm
15:46 20.4 °C 8.7 °C 1018.2 hPa SSE 9 km/h 11.3 km/h 47 % 0 mm
15:51 20.7 °C 8.3 °C 1018.2 hPa SSW 12.2 km/h 20.4 km/h 45 % 0 mm
15:56 20.8 °C 8.4 °C 1018.2 hPa South 10.3 km/h 16.7 km/h 45 % 0 mm
16:01 20.5 °C 8.2 °C 1018.2 hPa SSW 5.5 km/h 16.7 km/h 45 % 0 mm
16:06 20.5 °C 7.8 °C 1018.2 hPa SW 10.8 km/h 18.5 km/h 44 % 0 mm
16:11 20.5 °C 8.2 °C 1018.2 hPa North 7.1 km/h 13 km/h 45 % 0 mm
16:16 20.5 °C 7.8 °C 1018.2 hPa SSW 14.6 km/h 22.5 km/h 44 % 0 mm
16:21 20.2 °C 8.2 °C 1018.2 hPa North 15.4 km/h 24.1 km/h 46 % 0 mm
16:26 20.1 °C 8.4 °C 1018.2 hPa SE 12.4 km/h 18.5 km/h 47 % 0 mm
16:31 20.1 °C 8.4 °C 1018.2 hPa South 11.4 km/h 18.5 km/h 47 % 0 mm
16:36 20.1 °C 8.4 °C 1018.2 hPa South 9.8 km/h 13 km/h 47 % 0 mm
16:41 20.1 °C 8.4 °C 1018.2 hPa South 9.5 km/h 11.1 km/h 47 % 0 mm
16:46 20.1 °C 8.4 °C 1018.2 hPa SSE 10.9 km/h 19.3 km/h 47 % 0 mm
16:51 19.9 °C 8.2 °C 1018.5 hPa South 18 km/h 20.4 km/h 47 % 0 mm
16:56 19.7 °C 8.3 °C 1018.5 hPa North 10.9 km/h 18.5 km/h 48 % 0 mm
17:01 19.5 °C 8.2 °C 1018.5 hPa South 10.1 km/h 18.5 km/h 48 % 0 mm
17:06 19.5 °C 8.2 °C 1018.5 hPa South 12.6 km/h 18.5 km/h 48 % 0 mm
17:11 19.3 °C 8.1 °C 1018.5 hPa SSE 9.5 km/h 13 km/h 48 % 0 mm
17:16 19.1 °C 8.1 °C 1018.5 hPa SSE 6.8 km/h 13 km/h 49 % 0 mm
17:21 18.9 °C 7.9 °C 1018.5 hPa SSE 5 km/h 8 km/h 49 % 0 mm
17:26 18.8 °C 7.8 °C 1018.5 hPa SSE 9.7 km/h 9.7 km/h 49 % 0 mm
17:31 18.8 °C 7.9 °C 1018.5 hPa SSE 12.1 km/h 16.7 km/h 49 % 0 mm
17:36 18.8 °C 7.9 °C 1018.5 hPa South 7.1 km/h 14.5 km/h 49 % 0 mm
17:41 18.8 °C 8.1 °C 1018.5 hPa South 6.1 km/h 13 km/h 50 % 0 mm
17:46 18.7 °C 8.1 °C 1018.5 hPa South 7.2 km/h 11.1 km/h 50 % 0 mm
17:51 18.6 °C 8.2 °C 1018.5 hPa South 4.5 km/h 8 km/h 51 % 0 mm
17:56 18.4 °C 8.1 °C 1018.5 hPa South 3.2 km/h 9.3 km/h 51 % 0 mm
18:01 18.3 °C 7.9 °C 1018.5 hPa South 3.1 km/h 5.6 km/h 51 % 0 mm
18:06 18.1 °C 8.1 °C 1018.8 hPa South 0.6 km/h 5.6 km/h 52 % 0 mm
18:11 17.8 °C 8.1 °C 1018.8 hPa South 3.9 km/h 9.3 km/h 53 % 0 mm
18:16 17.6 °C 7.9 °C 1018.8 hPa South 8.2 km/h 11.3 km/h 53 % 0 mm
18:21 17.3 °C 7.9 °C 1018.8 hPa South 5.8 km/h 11.3 km/h 54 % 0 mm
18:27 17.1 °C 7.9 °C 1018.8 hPa South 7.7 km/h 9.3 km/h 55 % 0 mm
18:32 16.9 °C 8.1 °C 1018.8 hPa South 1.3 km/h 5.6 km/h 56 % 0 mm
18:37 16.7 °C 7.8 °C 1018.8 hPa South 4 km/h 7.4 km/h 56 % 0 mm
18:42 16.4 °C 7.8 °C 1018.8 hPa South 3.7 km/h 6.4 km/h 57 % 0 mm
18:47 16.2 °C 7.9 °C 1018.8 hPa South 4.3 km/h 9.3 km/h 58 % 0 mm
18:52 16 °C 7.7 °C 1018.8 hPa South 4.5 km/h 7.4 km/h 58 % 0 mm
18:57 15.8 °C 7.6 °C 1019.2 hPa South 4.3 km/h 7.4 km/h 58 % 0 mm
19:02 15.7 °C 7.7 °C 1019.2 hPa South 1.3 km/h 3.7 km/h 59 % 0 mm
19:07 15.4 °C 7.4 °C 1019.2 hPa South 1.8 km/h 5.6 km/h 59 % 0 mm
19:12 15.2 °C 7.5 °C 1019.2 hPa South 1.8 km/h 3.7 km/h 60 % 0 mm
19:17 15 °C 7.6 °C 1019.2 hPa South 1.4 km/h 3.7 km/h 61 % 0 mm
19:22 14.8 °C 7.4 °C 1019.2 hPa South 2.4 km/h 3.7 km/h 61 % 0 mm
19:27 14.7 °C 7.3 °C 1019.5 hPa South 1.8 km/h 3.7 km/h 61 % 0 mm
19:32 14.6 °C 7.1 °C 1019.5 hPa South 1.6 km/h 7.4 km/h 61 % 0 mm
19:37 14.4 °C 7.2 °C 1019.5 hPa South 3.5 km/h 8 km/h 62 % 0 mm
19:42 14.2 °C 7.1 °C 1019.5 hPa South 2.9 km/h 5.6 km/h 62 % 0 mm
19:47 14.2 °C 7 °C 1019.5 hPa South 3.1 km/h 5.6 km/h 62 % 0 mm
19:52 14.1 °C 6.9 °C 1019.5 hPa Calm     62 % 0 mm
19:57 13.9 °C 6.9 °C 1019.5 hPa South 1.8 km/h 3.7 km/h 63 % 0 mm
20:02 13.7 °C 6.8 °C 1019.9 hPa South 0.3 km/h 1.9 km/h 63 % 0 mm
20:07 13.5 °C 6.8 °C 1019.9 hPa South 2.7 km/h 5.6 km/h 64 % 0 mm
20:12 13.3 °C 6.6 °C 1019.9 hPa South 2.3 km/h 5.6 km/h 64 % 0 mm
20:17 13.2 °C 6.8 °C 1019.9 hPa South 1.6 km/h 3.7 km/h 65 % 0 mm
20:22 13.1 °C 6.7 °C 1019.9 hPa South 2.9 km/h 5.6 km/h 65 % 0 mm
20:28 13 °C 6.6 °C 1019.9 hPa South 3.4 km/h 5.6 km/h 65 % 0 mm
20:33 13 °C 6.6 °C 1019.9 hPa South 2.6 km/h 3.7 km/h 65 % 0 mm
20:37 13 °C 6.6 °C 1019.9 hPa Calm   3.7 km/h 65 % 0 mm
20:43 12.9 °C 6.4 °C 1019.9 hPa South 3.2 km/h 3.7 km/h 65 % 0 mm
20:48 12.8 °C 6.3 °C 1019.9 hPa South 3.5 km/h 6.4 km/h 65 % 0 mm
20:52 12.7 °C 6.3 °C 1019.9 hPa South 3.4 km/h 3.7 km/h 65 % 0 mm
20:57 12.6 °C 6.4 °C 1020.2 hPa South 4 km/h 6.4 km/h 66 % 0 mm
21:02 12.6 °C 6.4 °C 1019.9 hPa South 1.3 km/h 1.6 km/h 66 % 0 mm
21:07 12.5 °C 6.3 °C 1019.9 hPa South 2.6 km/h 5.6 km/h 66 % 0 mm
21:12 12.4 °C 6.3 °C 1020.2 hPa South 5.3 km/h 5.6 km/h 66 % 0 mm
21:17 12.4 °C 6.2 °C 1020.2 hPa South 0.5 km/h 3.7 km/h 66 % 0 mm
21:22 12.4 °C 6.2 °C 1020.2 hPa South 7.1 km/h 8 km/h 66 % 0 mm
21:28 12.3 °C 6.2 °C 1020.2 hPa South 6.4 km/h 7.4 km/h 66 % 0 mm
21:33 12.3 °C 6.1 °C 1019.9 hPa South 6.3 km/h 9.3 km/h 66 % 0 mm
21:38 12.4 °C 6 °C 1020.2 hPa South 5.6 km/h 7.4 km/h 65 % 0 mm
21:43 12.4 °C 6.1 °C 1020.2 hPa South 3.5 km/h 7.4 km/h 65 % 0 mm
21:48 12.4 °C 6 °C 1019.9 hPa South 7.1 km/h 7.4 km/h 65 % 0 mm
21:53 12.3 °C 5.9 °C 1020.2 hPa South 4.3 km/h 5.6 km/h 65 % 0 mm
21:58 12.3 °C 5.9 °C 1020.2 hPa South 7.4 km/h 9.3 km/h 65 % 0 mm
22:03 12.2 °C 5.8 °C 1020.2 hPa South 1.9 km/h 5.6 km/h 65 % 0 mm
22:08 12.2 °C 6 °C 1020.2 hPa South 7.4 km/h 7.4 km/h 66 % 0 mm
22:13 12.1 °C 5.9 °C 1020.2 hPa South 3.9 km/h 9.3 km/h 66 % 0 mm
22:18 12.1 °C 5.9 °C 1020.2 hPa South 1.9 km/h 3.7 km/h 66 % 0 mm
22:23 12.1 °C 5.9 °C 1020.2 hPa South 5.8 km/h 8 km/h 66 % 0 mm
22:28 12.2 °C 6 °C 1020.2 hPa South 5 km/h 8 km/h 66 % 0 mm
22:33 12.2 °C 6.1 °C 1020.2 hPa South 5.6 km/h 7.4 km/h 66 % 0 mm
22:38 12.2 °C 6.1 °C 1020.2 hPa South 3.5 km/h 8 km/h 66 % 0 mm
22:43 12.2 °C 6 °C 1020.2 hPa South 4.7 km/h 8 km/h 66 % 0 mm
22:48 12.1 °C 5.9 °C 1020.2 hPa South 5 km/h 6.4 km/h 66 % 0 mm
22:53 12.1 °C 5.9 °C 1020.2 hPa South 4.8 km/h 9.3 km/h 66 % 0 mm
22:58 11.9 °C 5.8 °C 1020.2 hPa South 5.8 km/h 6.4 km/h 66 % 0 mm
23:03 11.9 °C 5.9 °C 1019.9 hPa South 4 km/h 5.6 km/h 67 % 0 mm
23:08 11.8 °C 5.8 °C 1019.9 hPa South 4.2 km/h 7.4 km/h 67 % 0 mm
23:13 11.7 °C 6 °C 1019.9 hPa South 3.2 km/h 5.6 km/h 68 % 0 mm
23:18 11.6 °C 5.9 °C 1019.9 hPa South 1.6 km/h 5.6 km/h 68 % 0 mm
23:23 11.6 °C 5.8 °C 1019.9 hPa South 2.7 km/h 3.7 km/h 68 % 0 mm
23:28 11.4 °C 5.9 °C 1019.9 hPa South 4.3 km/h 6.4 km/h 69 % 0 mm
23:33 11.3 °C 5.8 °C 1019.9 hPa South 6.4 km/h 8 km/h 69 % 0 mm
23:38 11.3 °C 5.8 °C 1019.9 hPa South 2.6 km/h 3.7 km/h 69 % 0 mm
23:43 11.2 °C 5.9 °C 1019.9 hPa South 3.1 km/h 6.4 km/h 70 % 0 mm
23:48 11.2 °C 5.9 °C 1019.9 hPa South 8.5 km/h 9.3 km/h 70 % 0 mm
23:53 11.2 °C 5.9 °C 1019.9 hPa South 4.3 km/h 7.4 km/h 70 % 0 mm
23:58 11.2 °C 6.2 °C 1019.9 hPa South 0.8 km/h 3.7 km/h 71 % 0 mm
Ararat Weather
Compliments of Weather Underground - 2.25 mb
Click here to send mail.


ABOUT

Live weather data from Ararat, Victoria, Australia, 3377
Data uploaded from Cumulus every 5 minutes to Weather Underground.
This site then downloads the raw data for formatting and display.
Metric and imperial data can be displayed. Graphs and historical data available.
Includes Sun and Moon times and rain image live from BOM.

Check out Ararat Weather on Facebook, Twitter and Google +

Help support ongoing costs by checking out the ads





Follow @AraratWeather